| Date | Time | Temp. (oF) | Dew Point (oF) | Rel. Hum. (%) | Press. (in.) | Wind Dir. (deg.) | Wind Speed (mph) | Hourly Rainfall (i n.) |
|
|---|---|---|---|---|---|---|---|---|---|
| 1 | 04/27 | 24:00 | 57 | 32 | 39 | 29.98 | 270 | 7 | 0.00 |
| 2 | 04/26 | 23:00 | 58 | 33 | 39 | 29.96 | 10 | 2 | 0.00 |
| 3 | 04/26 | 22:00 | 61 | 31 | 33 | 29.91 | 310 | 0 | 0.00 |
| 4 | 04/26 | 21:00 | 64 | 32 | 31 | 29.86 | 300 | 2 | 0.00 |
| 5 | 04/26 | 20:00 | 67 | 31 | 27 | 29.85 | 260 | 11 | 0.00 |
| 6 | 04/26 | 19:00 | 71 | 29 | 22 | 29.85 | 270 | 6 | 0.00 |
| 7 | 04/26 | 18:00 | 74 | 27 | 18 | 29.87 | 270 | 6 | 0.00 |
| 8 | 04/26 | 17:00 | 76 | 28 | 18 | 29.89 | 290 | 10 | 0.00 |
| 9 | 04/26 | 16:00 | 76 | 32 | 21 | 29.91 | 320 | 10 | 0.00 |
| 10 | 04/26 | 15:00 | 75 | 33 | 22 | 29.91 | 310 | 6 | 0.00 |
| 11 | 04/26 | 14:00 | 74 | 32 | 22 | 29.93 | 290 | 6 | 0.00 |
| 12 | 04/26 | 13:00 | 72 | 32 | 24 | 29.93 | 300 | 10 | 0.00 |
| 13 | 04/26 | 12:00 | 71 | 34 | 27 | 29.97 | 340 | 10 | 0.00 |
| 14 | 04/26 | 11:00 | 67 | 35 | 31 | 30.01 | 290 | 7 | 0.00 |
| 15 | 04/26 | 10:00 | 56 | 33 | 43 | 30.01 | 330 | 6 | 0.00 |
| 16 | 04/26 | 09:00 | 46 | 34 | 65 | 30.07 | 290 | 1 | 0.00 |
| 17 | 04/26 | 08:00 | 39 | 33 | 79 | 30.08 | 290 | 1 | 0.00 |
| 18 | 04/26 | 07:00 | 36 | 29 | 77 | 30.07 | 290 | 1 | 0.00 |
| 19 | 04/26 | 06:00 | 37 | 29 | 75 | 30.07 | 290 | 0 | 0.00 |
| 20 | 04/26 | 05:00 | 38 | 29 | 72 | 30.09 | 290 | 0 | 0.00 |
| 21 | 04/26 | 04:00 | 39 | 28 | 67 | 30.10 | 290 | 0 | 0.00 |
| 22 | 04/26 | 03:00 | 41 | 28 | 62 | 30.10 | 290 | 0 | 0.00 |
| 23 | 04/26 | 02:00 | 42 | 29 | 62 | 30.10 | 290 | 0 | 0.00 |
| 24 | 04/26 | 01:00 | 44 | 30 | 60 | 30.14 | 290 | 0 | 0.00 |